Terminal Aerodrome Forecast
Issued by NWS Shreveport, LA

Home | Current Version | Previous Version | Text Only | Print | Product List | Glossary On
Versions: 1 2 3 4 5 6 7 8 9 10 11 12 13 14 15 16 17 18 19
000
FTUS44 KSHV 301720
TAFTXK
TAF
KTXK 301720Z 3018/0118 23017G21KT P6SM SCT019 SCT120
     FM301900 24020G27KT P6SM SCT050
     FM010400 22013G22KT P6SM SKC
     FM010700 24014KT P6SM SKC
     FM011000 24011KT P6SM SKC
     FM011300 24015G18KT P6SM SKC=

USA.gov is the U.S. government's official web portal to all federal, state and local government web resources and services.